Terminal Aerodrome Forecast
Issued by NWS Paducah, KY

Home | Current Version | Previous Version | Text Only | Print | Product List | Glossary Off
Versions: 1 2 3 4 5 6 7 8 9 10 11 12 13 14 15 16

000
FTUS43 KPAH 272300
TAFEVV
TAF
KEVV 272322Z 2800/2824 35010KT P6SM SCT015 OVC035
     FM280200 35010KT 4SM -RA BR SCT008 OVC015
     FM280400 35009KT 4SM -RA BR OVC009
     FM281500 36007KT P6SM BKN015
     FM282000 36008KT P6SM BKN035 OVC050=

USA.gov is the U.S. government's official web portal to all federal, state and local government web resources and services.